sensor_id;sensor_type;location;lat;lon;timestamp;temperature;humidity
7572;DHT22;3827;49.928;8.548;2023-04-03T00:00:32;4.20;99.90
7572;DHT22;3827;49.928;8.548;2023-04-03T00:02:59;4.20;99.90
7572;DHT22;3827;49.928;8.548;2023-04-03T00:05:27;4.20;99.90
7572;DHT22;3827;49.928;8.548;2023-04-03T00:07:53;4.20;99.90
7572;DHT22;3827;49.928;8.548;2023-04-03T00:10:20;4.20;99.90
7572;DHT22;3827;49.928;8.548;2023-04-03T00:12:47;4.20;99.90
7572;DHT22;3827;49.928;8.548;2023-04-03T00:15:14;4.20;99.90
7572;DHT22;3827;49.928;8.548;2023-04-03T00:17:41;4.20;99.90
7572;DHT22;3827;49.928;8.548;2023-04-03T00:20:08;4.20;99.90
7572;DHT22;3827;49.928;8.548;2023-04-03T00:22:37;4.20;99.90
7572;DHT22;3827;49.928;8.548;2023-04-03T00:25:04;4.20;99.90
7572;DHT22;3827;49.928;8.548;2023-04-03T00:27:31;4.20;1.00
7572;DHT22;3827;49.928;8.548;2023-04-03T00:29:58;4.20;1.00
7572;DHT22;3827;49.928;8.548;2023-04-03T00:32:24;4.30;99.90
7572;DHT22;3827;49.928;8.548;2023-04-03T00:34:51;4.30;99.90
7572;DHT22;3827;49.928;8.548;2023-04-03T00:37:18;4.30;99.90
7572;DHT22;3827;49.928;8.548;2023-04-03T00:39:46;4.30;1.00
7572;DHT22;3827;49.928;8.548;2023-04-03T00:42:13;4.30;1.00
7572;DHT22;3827;49.928;8.548;2023-04-03T00:47:44;4.30;99.90
7572;DHT22;3827;49.928;8.548;2023-04-03T00:50:11;4.20;99.90
7572;DHT22;3827;49.928;8.548;2023-04-03T00:52:39;4.20;1.00
7572;DHT22;3827;49.928;8.548;2023-04-03T00:55:08;4.20;1.00
7572;DHT22;3827;49.928;8.548;2023-04-03T00:57:36;4.20;1.00
7572;DHT22;3827;49.928;8.548;2023-04-03T01:00:08;4.10;1.00
7572;DHT22;3827;49.928;8.548;2023-04-03T01:02:36;4.10;1.00
7572;DHT22;3827;49.928;8.548;2023-04-03T01:05:04;4.10;1.00
7572;DHT22;3827;49.928;8.548;2023-04-03T01:07:31;4.10;1.00
7572;DHT22;3827;49.928;8.548;2023-04-03T01:10:01;4.60;1.00
7572;DHT22;3827;49.928;8.548;2023-04-03T01:12:32;4.10;1.00
7572;DHT22;3827;49.928;8.548;2023-04-03T01:15:01;4.10;1.00
7572;DHT22;3827;49.928;8.548;2023-04-03T01:17:30;4.10;1.00
7572;DHT22;3827;49.928;8.548;2023-04-03T01:23:17;4.20;1.00
7572;DHT22;3827;49.928;8.548;2023-04-03T01:25:51;4.10;1.00
7572;DHT22;3827;49.928;8.548;2023-04-03T01:28:22;4.20;1.00
7572;DHT22;3827;49.928;8.548;2023-04-03T01:30:53;4.10;1.00
7572;DHT22;3827;49.928;8.548;2023-04-03T01:33:24;4.20;1.00
7572;DHT22;3827;49.928;8.548;2023-04-03T01:35:51;4.20;1.00
7572;DHT22;3827;49.928;8.548;2023-04-03T01:38:18;4.20;1.00
7572;DHT22;3827;49.928;8.548;2023-04-03T01:40:44;4.20;1.00
7572;DHT22;3827;49.928;8.548;2023-04-03T01:43:11;4.40;1.00
7572;DHT22;3827;49.928;8.548;2023-04-03T01:45:38;4.30;1.00
7572;DHT22;3827;49.928;8.548;2023-04-03T01:48:05;4.20;1.00
7572;DHT22;3827;49.928;8.548;2023-04-03T01:50:33;4.20;1.00
7572;DHT22;3827;49.928;8.548;2023-04-03T01:53:00;4.10;1.00
7572;DHT22;3827;49.928;8.548;2023-04-03T01:55:27;4.10;1.00
7572;DHT22;3827;49.928;8.548;2023-04-03T01:57:54;4.10;1.00
7572;DHT22;3827;49.928;8.548;2023-04-03T02:00:20;4.10;1.00
7572;DHT22;3827;49.928;8.548;2023-04-03T02:02:47;4.00;1.00
7572;DHT22;3827;49.928;8.548;2023-04-03T02:05:14;4.50;1.00
7572;DHT22;3827;49.928;8.548;2023-04-03T02:07:42;4.00;1.00
7572;DHT22;3827;49.928;8.548;2023-04-03T02:10:09;4.00;1.00
7572;DHT22;3827;49.928;8.548;2023-04-03T02:12:36;3.90;1.00
7572;DHT22;3827;49.928;8.548;2023-04-03T02:15:04;3.90;1.00
7572;DHT22;3827;49.928;8.548;2023-04-03T02:17:31;3.90;1.00
7572;DHT22;3827;49.928;8.548;2023-04-03T02:19:58;3.90;1.00
7572;DHT22;3827;49.928;8.548;2023-04-03T02:22:25;3.90;1.00
7572;DHT22;3827;49.928;8.548;2023-04-03T02:24:53;3.90;1.00
7572;DHT22;3827;49.928;8.548;2023-04-03T02:27:20;3.90;1.00
7572;DHT22;3827;49.928;8.548;2023-04-03T02:29:47;3.90;1.00
7572;DHT22;3827;49.928;8.548;2023-04-03T02:32:13;3.90;1.00
7572;DHT22;3827;49.928;8.548;2023-04-03T02:34:40;3.90;1.00
7572;DHT22;3827;49.928;8.548;2023-04-03T02:37:07;3.90;1.00
7572;DHT22;3827;49.928;8.548;2023-04-03T02:39:34;3.90;1.00
7572;DHT22;3827;49.928;8.548;2023-04-03T02:42:02;3.90;1.00
7572;DHT22;3827;49.928;8.548;2023-04-03T02:44:29;3.90;1.00
7572;DHT22;3827;49.928;8.548;2023-04-03T02:46:56;3.90;1.00
7572;DHT22;3827;49.928;8.548;2023-04-03T02:49:23;3.90;1.00
7572;DHT22;3827;49.928;8.548;2023-04-03T02:51:50;4.00;1.00
7572;DHT22;3827;49.928;8.548;2023-04-03T02:54:17;3.90;1.00
7572;DHT22;3827;49.928;8.548;2023-04-03T02:56:44;3.90;1.00
7572;DHT22;3827;49.928;8.548;2023-04-03T02:59:12;3.90;1.00
7572;DHT22;3827;49.928;8.548;2023-04-03T03:01:39;3.90;1.00
7572;DHT22;3827;49.928;8.548;2023-04-03T03:04:06;3.90;1.00
7572;DHT22;3827;49.928;8.548;2023-04-03T03:06:33;3.90;1.00
7572;DHT22;3827;49.928;8.548;2023-04-03T03:09:00;3.90;1.00
7572;DHT22;3827;49.928;8.548;2023-04-03T03:11:27;3.90;1.00
7572;DHT22;3827;49.928;8.548;2023-04-03T03:13:54;3.80;1.00
7572;DHT22;3827;49.928;8.548;2023-04-03T03:16:22;3.80;1.00
7572;DHT22;3827;49.928;8.548;2023-04-03T03:18:49;3.90;1.00
7572;DHT22;3827;49.928;8.548;2023-04-03T03:21:16;3.90;1.00
7572;DHT22;3827;49.928;8.548;2023-04-03T03:23:43;3.80;1.00
7572;DHT22;3827;49.928;8.548;2023-04-03T03:26:10;3.80;1.00
7572;DHT22;3827;49.928;8.548;2023-04-03T03:28:38;3.80;1.00
7572;DHT22;3827;49.928;8.548;2023-04-03T03:31:07;3.70;80.10
7572;DHT22;3827;49.928;8.548;2023-04-03T03:33:35;3.70;40.30
7572;DHT22;3827;49.928;8.548;2023-04-03T03:36:02;3.70;73.60
7572;DHT22;3827;49.928;8.548;2023-04-03T03:38:29;3.70;99.90
7572;DHT22;3827;49.928;8.548;2023-04-03T03:40:56;3.70;99.90
7572;DHT22;3827;49.928;8.548;2023-04-03T03:43:23;3.60;99.90
7572;DHT22;3827;49.928;8.548;2023-04-03T03:45:50;3.60;99.90
7572;DHT22;3827;49.928;8.548;2023-04-03T03:48:18;3.60;99.90
7572;DHT22;3827;49.928;8.548;2023-04-03T03:50:46;3.60;99.90
7572;DHT22;3827;49.928;8.548;2023-04-03T03:53:13;3.60;99.90
7572;DHT22;3827;49.928;8.548;2023-04-03T03:55:40;3.70;99.90
7572;DHT22;3827;49.928;8.548;2023-04-03T03:58:07;4.10;99.90
7572;DHT22;3827;49.928;8.548;2023-04-03T04:00:34;3.60;99.90
7572;DHT22;3827;49.928;8.548;2023-04-03T04:03:01;3.60;99.90
7572;DHT22;3827;49.928;8.548;2023-04-03T04:05:28;3.60;99.90
7572;DHT22;3827;49.928;8.548;2023-04-03T04:07:56;3.70;99.90
7572;DHT22;3827;49.928;8.548;2023-04-03T04:10:22;3.70;1.00
7572;DHT22;3827;49.928;8.548;2023-04-03T04:12:49;3.70;99.90
7572;DHT22;3827;49.928;8.548;2023-04-03T04:15:16;3.70;99.90
7572;DHT22;3827;49.928;8.548;2023-04-03T04:17:44;3.70;99.90
7572;DHT22;3827;49.928;8.548;2023-04-03T04:20:11;4.40;1.00
7572;DHT22;3827;49.928;8.548;2023-04-03T04:22:38;3.70;1.00
7572;DHT22;3827;49.928;8.548;2023-04-03T04:25:06;3.70;1.00
7572;DHT22;3827;49.928;8.548;2023-04-03T04:27:33;3.70;1.00
7572;DHT22;3827;49.928;8.548;2023-04-03T04:30:00;3.70;1.00
7572;DHT22;3827;49.928;8.548;2023-04-03T04:32:28;3.70;1.00
7572;DHT22;3827;49.928;8.548;2023-04-03T04:34:55;3.80;1.00
7572;DHT22;3827;49.928;8.548;2023-04-03T04:37:21;3.70;1.00
7572;DHT22;3827;49.928;8.548;2023-04-03T04:39:48;3.70;1.00
7572;DHT22;3827;49.928;8.548;2023-04-03T04:42:16;3.80;1.00
7572;DHT22;3827;49.928;8.548;2023-04-03T04:44:43;3.60;1.00
7572;DHT22;3827;49.928;8.548;2023-04-03T04:47:10;3.70;1.00
7572;DHT22;3827;49.928;8.548;2023-04-03T04:49:37;3.60;1.00
7572;DHT22;3827;49.928;8.548;2023-04-03T04:52:04;3.60;1.00
7572;DHT22;3827;49.928;8.548;2023-04-03T04:54:31;3.60;1.00
7572;DHT22;3827;49.928;8.548;2023-04-03T04:56:58;3.90;1.00
7572;DHT22;3827;49.928;8.548;2023-04-03T04:59:26;3.40;1.00
7572;DHT22;3827;49.928;8.548;2023-04-03T05:01:53;3.40;1.00
7572;DHT22;3827;49.928;8.548;2023-04-03T05:04:20;3.30;1.00
7572;DHT22;3827;49.928;8.548;2023-04-03T05:06:47;3.30;1.00
7572;DHT22;3827;49.928;8.548;2023-04-03T05:09:14;3.20;1.00
7572;DHT22;3827;49.928;8.548;2023-04-03T05:11:40;3.20;1.00
7572;DHT22;3827;49.928;8.548;2023-04-03T05:14:08;3.10;1.00
7572;DHT22;3827;49.928;8.548;2023-04-03T05:16:36;3.10;1.00
7572;DHT22;3827;49.928;8.548;2023-04-03T05:19:03;3.10;1.00
7572;DHT22;3827;49.928;8.548;2023-04-03T05:21:30;3.00;1.00
7572;DHT22;3827;49.928;8.548;2023-04-03T05:23:58;3.00;1.00
7572;DHT22;3827;49.928;8.548;2023-04-03T05:26:28;2.90;1.00
7572;DHT22;3827;49.928;8.548;2023-04-03T05:28:55;2.90;1.00
7572;DHT22;3827;49.928;8.548;2023-04-03T05:31:22;2.90;1.00
7572;DHT22;3827;49.928;8.548;2023-04-03T05:33:50;2.80;1.00
7572;DHT22;3827;49.928;8.548;2023-04-03T05:36:17;2.80;1.00
7572;DHT22;3827;49.928;8.548;2023-04-03T05:38:44;2.80;1.00
7572;DHT22;3827;49.928;8.548;2023-04-03T05:41:11;2.80;1.00
7572;DHT22;3827;49.928;8.548;2023-04-03T05:43:37;2.80;1.00
7572;DHT22;3827;49.928;8.548;2023-04-03T05:46:09;2.80;1.00
7572;DHT22;3827;49.928;8.548;2023-04-03T05:48:36;2.90;1.00
7572;DHT22;3827;49.928;8.548;2023-04-03T05:51:05;1.20;1.00
7572;DHT22;3827;49.928;8.548;2023-04-03T05:53:35;3.10;1.00
7572;DHT22;3827;49.928;8.548;2023-04-03T05:56:02;3.00;1.00
7572;DHT22;3827;49.928;8.548;2023-04-03T05:58:29;3.00;1.00
7572;DHT22;3827;49.928;8.548;2023-04-03T06:00:56;3.00;1.00
7572;DHT22;3827;49.928;8.548;2023-04-03T06:03:23;3.10;1.00
7572;DHT22;3827;49.928;8.548;2023-04-03T06:05:50;3.10;1.00
7572;DHT22;3827;49.928;8.548;2023-04-03T06:08:18;3.10;1.00
7572;DHT22;3827;49.928;8.548;2023-04-03T06:10:46;3.10;1.00
7572;DHT22;3827;49.928;8.548;2023-04-03T06:13:13;3.10;1.00
7572;DHT22;3827;49.928;8.548;2023-04-03T06:15:40;3.00;1.00
7572;DHT22;3827;49.928;8.548;2023-04-03T06:18:07;3.10;1.00
7572;DHT22;3827;49.928;8.548;2023-04-03T06:20:34;3.20;1.00
7572;DHT22;3827;49.928;8.548;2023-04-03T06:23:01;3.30;1.00
7572;DHT22;3827;49.928;8.548;2023-04-03T06:25:29;3.20;1.00
7572;DHT22;3827;49.928;8.548;2023-04-03T06:28:00;3.20;1.00
7572;DHT22;3827;49.928;8.548;2023-04-03T06:30:27;3.30;1.00
7572;DHT22;3827;49.928;8.548;2023-04-03T06:32:54;3.30;1.00
7572;DHT22;3827;49.928;8.548;2023-04-03T06:35:21;3.30;1.00
7572;DHT22;3827;49.928;8.548;2023-04-03T06:37:49;3.30;1.00
7572;DHT22;3827;49.928;8.548;2023-04-03T06:40:19;3.30;1.00
7572;DHT22;3827;49.928;8.548;2023-04-03T06:42:48;3.40;1.00
7572;DHT22;3827;49.928;8.548;2023-04-03T06:45:15;3.40;1.00
7572;DHT22;3827;49.928;8.548;2023-04-03T06:47:42;3.50;1.00
7572;DHT22;3827;49.928;8.548;2023-04-03T06:50:10;3.60;1.00
7572;DHT22;3827;49.928;8.548;2023-04-03T06:52:39;3.60;99.90
7572;DHT22;3827;49.928;8.548;2023-04-03T06:55:07;3.70;99.90
7572;DHT22;3827;49.928;8.548;2023-04-03T06:57:34;3.60;99.90
7572;DHT22;3827;49.928;8.548;2023-04-03T07:00:04;3.80;99.90
7572;DHT22;3827;49.928;8.548;2023-04-03T07:02:31;3.70;99.90
7572;DHT22;3827;49.928;8.548;2023-04-03T07:04:58;3.70;99.90
7572;DHT22;3827;49.928;8.548;2023-04-03T07:07:25;3.70;99.90
7572;DHT22;3827;49.928;8.548;2023-04-03T07:09:52;3.80;99.90
7572;DHT22;3827;49.928;8.548;2023-04-03T07:12:18;3.90;99.90
7572;DHT22;3827;49.928;8.548;2023-04-03T07:14:45;3.90;99.90
7572;DHT22;3827;49.928;8.548;2023-04-03T07:17:13;3.90;99.90
7572;DHT22;3827;49.928;8.548;2023-04-03T07:19:40;4.00;99.90
7572;DHT22;3827;49.928;8.548;2023-04-03T07:22:07;4.10;99.90
7572;DHT22;3827;49.928;8.548;2023-04-03T07:24:36;4.10;99.90
7572;DHT22;3827;49.928;8.548;2023-04-03T07:27:03;4.10;99.90
7572;DHT22;3827;49.928;8.548;2023-04-03T07:29:31;4.20;99.90
7572;DHT22;3827;49.928;8.548;2023-04-03T07:31:58;4.20;99.90
7572;DHT22;3827;49.928;8.548;2023-04-03T07:34:26;4.30;99.90
7572;DHT22;3827;49.928;8.548;2023-04-03T07:36:53;4.40;99.90
7572;DHT22;3827;49.928;8.548;2023-04-03T07:39:20;4.40;99.90
7572;DHT22;3827;49.928;8.548;2023-04-03T07:41:47;4.40;99.90
7572;DHT22;3827;49.928;8.548;2023-04-03T07:44:14;4.60;99.90
7572;DHT22;3827;49.928;8.548;2023-04-03T07:46:40;4.70;99.90
7572;DHT22;3827;49.928;8.548;2023-04-03T07:49:07;4.70;99.90
7572;DHT22;3827;49.928;8.548;2023-04-03T07:51:36;4.80;99.90
7572;DHT22;3827;49.928;8.548;2023-04-03T07:54:03;4.80;99.90
7572;DHT22;3827;49.928;8.548;2023-04-03T07:56:30;5.50;99.90
7572;DHT22;3827;49.928;8.548;2023-04-03T07:58:57;4.70;99.90
7572;DHT22;3827;49.928;8.548;2023-04-03T08:01:24;4.80;99.90
7572;DHT22;3827;49.928;8.548;2023-04-03T08:03:51;4.90;99.90
7572;DHT22;3827;49.928;8.548;2023-04-03T08:06:18;5.00;99.90
7572;DHT22;3827;49.928;8.548;2023-04-03T08:08:46;5.00;99.90
7572;DHT22;3827;49.928;8.548;2023-04-03T08:11:13;5.10;98.90
7572;DHT22;3827;49.928;8.548;2023-04-03T08:13:40;5.10;85.30
7572;DHT22;3827;49.928;8.548;2023-04-03T08:16:08;5.10;90.70
7572;DHT22;3827;49.928;8.548;2023-04-03T08:18:35;5.10;86.30
7572;DHT22;3827;49.928;8.548;2023-04-03T08:21:05;5.30;90.40
7572;DHT22;3827;49.928;8.548;2023-04-03T08:23:32;5.50;92.00
7572;DHT22;3827;49.928;8.548;2023-04-03T08:26:05;5.50;86.70
7572;DHT22;3827;49.928;8.548;2023-04-03T08:28:32;5.70;90.50
7572;DHT22;3827;49.928;8.548;2023-04-03T08:31:03;6.00;86.40
7572;DHT22;3827;49.928;8.548;2023-04-03T08:33:29;6.10;67.40
7572;DHT22;3827;49.928;8.548;2023-04-03T08:35:56;6.20;57.00
7572;DHT22;3827;49.928;8.548;2023-04-03T08:38:23;6.10;29.70
7572;DHT22;3827;49.928;8.548;2023-04-03T08:41:02;6.50;11.30
7572;DHT22;3827;49.928;8.548;2023-04-03T08:43:36;6.00;8.40
7572;DHT22;3827;49.928;8.548;2023-04-03T08:46:11;6.20;12.20
7572;DHT22;3827;49.928;8.548;2023-04-03T08:48:41;6.20;7.50
7572;DHT22;3827;49.928;8.548;2023-04-03T08:51:13;6.20;1.00
7572;DHT22;3827;49.928;8.548;2023-04-03T08:53:43;6.30;2.90
7572;DHT22;3827;49.928;8.548;2023-04-03T08:56:15;6.50;1.00
7572;DHT22;3827;49.928;8.548;2023-04-03T08:58:49;6.60;1.00
7572;DHT22;3827;49.928;8.548;2023-04-03T09:01:21;6.80;1.00
7572;DHT22;3827;49.928;8.548;2023-04-03T09:03:49;6.90;1.00
7572;DHT22;3827;49.928;8.548;2023-04-03T09:06:20;7.30;1.00
7572;DHT22;3827;49.928;8.548;2023-04-03T09:08:53;7.50;1.00
7572;DHT22;3827;49.928;8.548;2023-04-03T09:11:27;7.50;1.00
7572;DHT22;3827;49.928;8.548;2023-04-03T09:13:59;7.80;1.00
7572;DHT22;3827;49.928;8.548;2023-04-03T09:16:38;7.70;1.00
7572;DHT22;3827;49.928;8.548;2023-04-03T09:19:13;7.80;1.00
7572;DHT22;3827;49.928;8.548;2023-04-03T09:21:41;7.70;1.00
7572;DHT22;3827;49.928;8.548;2023-04-03T09:24:11;7.50;1.00
7572;DHT22;3827;49.928;8.548;2023-04-03T09:26:44;7.50;1.00
7572;DHT22;3827;49.928;8.548;2023-04-03T09:29:16;7.20;1.00
7572;DHT22;3827;49.928;8.548;2023-04-03T09:31:45;7.20;1.00
7572;DHT22;3827;49.928;8.548;2023-04-03T09:34:20;7.70;1.00
7572;DHT22;3827;49.928;8.548;2023-04-03T09:36:50;7.70;1.00
7572;DHT22;3827;49.928;8.548;2023-04-03T09:39:19;8.00;1.00
7572;DHT22;3827;49.928;8.548;2023-04-03T09:42:00;7.60;1.00
7572;DHT22;3827;49.928;8.548;2023-04-03T09:44:30;7.40;1.00
7572;DHT22;3827;49.928;8.548;2023-04-03T09:46:57;7.30;1.00
7572;DHT22;3827;49.928;8.548;2023-04-03T09:49:25;7.40;1.00
7572;DHT22;3827;49.928;8.548;2023-04-03T09:51:52;7.50;1.00
7572;DHT22;3827;49.928;8.548;2023-04-03T09:54:34;7.80;1.00
7572;DHT22;3827;49.928;8.548;2023-04-03T09:57:08;7.70;1.00
7572;DHT22;3827;49.928;8.548;2023-04-03T09:59:45;8.00;1.00
7572;DHT22;3827;49.928;8.548;2023-04-03T10:02:29;7.70;1.00
7572;DHT22;3827;49.928;8.548;2023-04-03T10:04:57;7.60;1.00
7572;DHT22;3827;49.928;8.548;2023-04-03T10:07:30;7.40;1.00
7572;DHT22;3827;49.928;8.548;2023-04-03T10:09:58;7.50;1.00
7572;DHT22;3827;49.928;8.548;2023-04-03T10:12:28;7.80;1.00
7572;DHT22;3827;49.928;8.548;2023-04-03T10:14:57;8.50;1.00
7572;DHT22;3827;49.928;8.548;2023-04-03T10:17:36;9.20;1.00
7572;DHT22;3827;49.928;8.548;2023-04-03T10:20:15;9.20;1.00
7572;DHT22;3827;49.928;8.548;2023-04-03T10:22:53;9.00;1.00
7572;DHT22;3827;49.928;8.548;2023-04-03T10:25:27;9.00;1.00
7572;DHT22;3827;49.928;8.548;2023-04-03T10:27:59;9.50;1.00
7572;DHT22;3827;49.928;8.548;2023-04-03T10:30:35;9.50;1.00
7572;DHT22;3827;49.928;8.548;2023-04-03T10:33:18;9.30;1.00
7572;DHT22;3827;49.928;8.548;2023-04-03T10:35:53;8.90;1.00
7572;DHT22;3827;49.928;8.548;2023-04-03T10:38:32;9.50;1.00
7572;DHT22;3827;49.928;8.548;2023-04-03T10:41:04;9.10;1.00
7572;DHT22;3827;49.928;8.548;2023-04-03T10:43:40;9.40;1.00
7572;DHT22;3827;49.928;8.548;2023-04-03T10:46:11;9.50;1.00
7572;DHT22;3827;49.928;8.548;2023-04-03T10:48:49;9.70;1.00
7572;DHT22;3827;49.928;8.548;2023-04-03T10:51:24;9.80;1.00
7572;DHT22;3827;49.928;8.548;2023-04-03T10:53:55;9.90;1.00
7572;DHT22;3827;49.928;8.548;2023-04-03T10:56:30;9.90;1.00
7572;DHT22;3827;49.928;8.548;2023-04-03T10:59:02;9.00;1.00
7572;DHT22;3827;49.928;8.548;2023-04-03T11:01:34;9.40;1.00
7572;DHT22;3827;49.928;8.548;2023-04-03T11:04:05;9.20;1.00
7572;DHT22;3827;49.928;8.548;2023-04-03T11:06:36;9.00;1.00
7572;DHT22;3827;49.928;8.548;2023-04-03T11:09:15;9.00;1.00
7572;DHT22;3827;49.928;8.548;2023-04-03T11:11:43;9.20;1.00
7572;DHT22;3827;49.928;8.548;2023-04-03T11:14:19;9.10;1.00
7572;DHT22;3827;49.928;8.548;2023-04-03T11:16:53;9.60;1.00
7572;DHT22;3827;49.928;8.548;2023-04-03T11:19:29;9.90;1.00
7572;DHT22;3827;49.928;8.548;2023-04-03T11:22:01;10.50;1.00
7572;DHT22;3827;49.928;8.548;2023-04-03T11:24:32;11.10;1.00
7572;DHT22;3827;49.928;8.548;2023-04-03T11:27:01;11.10;1.00
7572;DHT22;3827;49.928;8.548;2023-04-03T11:29:34;10.20;1.00
7572;DHT22;3827;49.928;8.548;2023-04-03T11:32:12;9.90;1.00
7572;DHT22;3827;49.928;8.548;2023-04-03T11:34:44;9.50;1.00
7572;DHT22;3827;49.928;8.548;2023-04-03T11:37:15;10.10;1.00
7572;DHT22;3827;49.928;8.548;2023-04-03T11:39:51;11.20;1.00
7572;DHT22;3827;49.928;8.548;2023-04-03T11:42:27;10.80;1.00
7572;DHT22;3827;49.928;8.548;2023-04-03T11:47:55;10.20;1.00
7572;DHT22;3827;49.928;8.548;2023-04-03T11:50:41;9.70;1.00
7572;DHT22;3827;49.928;8.548;2023-04-03T11:53:29;9.60;1.00
7572;DHT22;3827;49.928;8.548;2023-04-03T11:55:58;10.40;1.00
7572;DHT22;3827;49.928;8.548;2023-04-03T11:58:27;10.60;1.00
7572;DHT22;3827;49.928;8.548;2023-04-03T12:01:00;9.90;1.00
7572;DHT22;3827;49.928;8.548;2023-04-03T12:07:01;10.30;1.00
7572;DHT22;3827;49.928;8.548;2023-04-03T12:12:33;9.40;1.00
7572;DHT22;3827;49.928;8.548;2023-04-03T12:15:23;9.20;1.00
7572;DHT22;3827;49.928;8.548;2023-04-03T12:17:50;9.30;1.00
7572;DHT22;3827;49.928;8.548;2023-04-03T12:20:55;9.90;1.00
7572;DHT22;3827;49.928;8.548;2023-04-03T12:24:04;9.70;1.00
7572;DHT22;3827;49.928;8.548;2023-04-03T12:26:36;9.60;1.00
7572;DHT22;3827;49.928;8.548;2023-04-03T12:29:15;9.40;1.00
7572;DHT22;3827;49.928;8.548;2023-04-03T12:32:10;9.10;1.00
7572;DHT22;3827;49.928;8.548;2023-04-03T12:34:54;9.90;1.00
7572;DHT22;3827;49.928;8.548;2023-04-03T12:37:37;10.70;1.00
7572;DHT22;3827;49.928;8.548;2023-04-03T12:40:15;11.20;1.00
7572;DHT22;3827;49.928;8.548;2023-04-03T12:43:01;12.10;1.00
7572;DHT22;3827;49.928;8.548;2023-04-03T12:45:40;12.40;1.00
7572;DHT22;3827;49.928;8.548;2023-04-03T12:48:14;12.30;1.00
7572;DHT22;3827;49.928;8.548;2023-04-03T12:50:43;12.50;1.00
7572;DHT22;3827;49.928;8.548;2023-04-03T12:53:14;12.00;1.00
7572;DHT22;3827;49.928;8.548;2023-04-03T12:55:44;12.30;1.00
7572;DHT22;3827;49.928;8.548;2023-04-03T12:58:15;12.10;1.00
7572;DHT22;3827;49.928;8.548;2023-04-03T13:00:43;11.80;1.00
7572;DHT22;3827;49.928;8.548;2023-04-03T13:03:22;11.90;1.00
7572;DHT22;3827;49.928;8.548;2023-04-03T13:05:50;12.10;1.00
7572;DHT22;3827;49.928;8.548;2023-04-03T13:08:17;11.60;1.00
7572;DHT22;3827;49.928;8.548;2023-04-03T13:10:52;11.80;1.00
7572;DHT22;3827;49.928;8.548;2023-04-03T13:13:20;11.20;1.00
7572;DHT22;3827;49.928;8.548;2023-04-03T13:15:49;10.80;1.00
7572;DHT22;3827;49.928;8.548;2023-04-03T13:18:24;10.70;1.00
7572;DHT22;3827;49.928;8.548;2023-04-03T13:20:52;11.00;1.00
7572;DHT22;3827;49.928;8.548;2023-04-03T13:23:20;11.40;1.00
7572;DHT22;3827;49.928;8.548;2023-04-03T13:25:50;11.30;1.00
7572;DHT22;3827;49.928;8.548;2023-04-03T13:28:20;12.00;1.00
7572;DHT22;3827;49.928;8.548;2023-04-03T13:31:00;12.10;1.00
7572;DHT22;3827;49.928;8.548;2023-04-03T13:33:30;12.60;1.00
7572;DHT22;3827;49.928;8.548;2023-04-03T13:36:00;12.00;1.00
7572;DHT22;3827;49.928;8.548;2023-04-03T13:38:29;11.00;1.00
7572;DHT22;3827;49.928;8.548;2023-04-03T13:41:01;10.40;1.00
7572;DHT22;3827;49.928;8.548;2023-04-03T13:43:31;9.60;1.00
7572;DHT22;3827;49.928;8.548;2023-04-03T13:46:22;9.60;1.00
7572;DHT22;3827;49.928;8.548;2023-04-03T13:48:51;10.10;1.00
7572;DHT22;3827;49.928;8.548;2023-04-03T13:51:21;10.60;1.00
7572;DHT22;3827;49.928;8.548;2023-04-03T13:53:51;11.10;1.00
7572;DHT22;3827;49.928;8.548;2023-04-03T13:56:25;11.30;1.00
7572;DHT22;3827;49.928;8.548;2023-04-03T13:59:03;11.60;1.00
7572;DHT22;3827;49.928;8.548;2023-04-03T14:01:40;11.60;1.00
7572;DHT22;3827;49.928;8.548;2023-04-03T14:04:14;11.70;1.00
7572;DHT22;3827;49.928;8.548;2023-04-03T14:06:42;11.70;1.00
7572;DHT22;3827;49.928;8.548;2023-04-03T14:09:09;11.20;1.00
7572;DHT22;3827;49.928;8.548;2023-04-03T14:11:37;11.70;1.00
7572;DHT22;3827;49.928;8.548;2023-04-03T14:14:11;11.50;1.00
7572;DHT22;3827;49.928;8.548;2023-04-03T14:16:41;11.70;1.00
7572;DHT22;3827;49.928;8.548;2023-04-03T14:19:17;12.10;1.00
7572;DHT22;3827;49.928;8.548;2023-04-03T14:21:44;11.90;1.00
7572;DHT22;3827;49.928;8.548;2023-04-03T14:24:10;11.50;1.00
7572;DHT22;3827;49.928;8.548;2023-04-03T14:26:39;11.40;1.00
7572;DHT22;3827;49.928;8.548;2023-04-03T14:29:06;11.10;1.00
7572;DHT22;3827;49.928;8.548;2023-04-03T14:31:33;11.20;1.00
7572;DHT22;3827;49.928;8.548;2023-04-03T14:34:00;11.30;1.00
7572;DHT22;3827;49.928;8.548;2023-04-03T14:36:28;10.70;1.00
7572;DHT22;3827;49.928;8.548;2023-04-03T14:38:56;10.80;1.00
7572;DHT22;3827;49.928;8.548;2023-04-03T14:41:25;10.20;1.00
7572;DHT22;3827;49.928;8.548;2023-04-03T14:43:54;9.90;1.00
7572;DHT22;3827;49.928;8.548;2023-04-03T14:46:25;10.30;1.00
7572;DHT22;3827;49.928;8.548;2023-04-03T14:48:53;10.90;1.00
7572;DHT22;3827;49.928;8.548;2023-04-03T14:51:20;10.80;1.00
7572;DHT22;3827;49.928;8.548;2023-04-03T14:53:47;11.10;1.00
7572;DHT22;3827;49.928;8.548;2023-04-03T14:56:17;10.60;1.00
7572;DHT22;3827;49.928;8.548;2023-04-03T14:58:47;11.00;1.00
7572;DHT22;3827;49.928;8.548;2023-04-03T15:01:17;10.60;1.00
7572;DHT22;3827;49.928;8.548;2023-04-03T15:03:44;11.00;1.00
7572;DHT22;3827;49.928;8.548;2023-04-03T15:06:12;11.20;1.00
7572;DHT22;3827;49.928;8.548;2023-04-03T15:08:40;11.20;1.00
7572;DHT22;3827;49.928;8.548;2023-04-03T15:11:08;10.90;1.00
7572;DHT22;3827;49.928;8.548;2023-04-03T15:13:35;11.10;1.00
7572;DHT22;3827;49.928;8.548;2023-04-03T15:16:02;10.70;1.00
7572;DHT22;3827;49.928;8.548;2023-04-03T15:18:35;12.20;1.00
7572;DHT22;3827;49.928;8.548;2023-04-03T15:21:03;10.40;1.00
7572;DHT22;3827;49.928;8.548;2023-04-03T15:23:30;10.30;1.00
7572;DHT22;3827;49.928;8.548;2023-04-03T15:25:57;10.50;1.00
7572;DHT22;3827;49.928;8.548;2023-04-03T15:28:28;10.60;1.00
7572;DHT22;3827;49.928;8.548;2023-04-03T15:30:56;10.80;1.00
7572;DHT22;3827;49.928;8.548;2023-04-03T15:33:23;10.20;1.00
7572;DHT22;3827;49.928;8.548;2023-04-03T15:35:51;10.70;1.00
7572;DHT22;3827;49.928;8.548;2023-04-03T15:38:18;10.10;1.00
7572;DHT22;3827;49.928;8.548;2023-04-03T15:40:45;10.20;1.00
7572;DHT22;3827;49.928;8.548;2023-04-03T15:43:13;10.20;1.00
7572;DHT22;3827;49.928;8.548;2023-04-03T15:45:41;10.00;1.00
7572;DHT22;3827;49.928;8.548;2023-04-03T15:48:09;9.80;1.00
7572;DHT22;3827;49.928;8.548;2023-04-03T15:50:36;9.70;1.00
7572;DHT22;3827;49.928;8.548;2023-04-03T15:53:05;9.40;1.00
7572;DHT22;3827;49.928;8.548;2023-04-03T15:55:33;9.40;1.00
7572;DHT22;3827;49.928;8.548;2023-04-03T15:58:01;9.40;1.00
7572;DHT22;3827;49.928;8.548;2023-04-03T16:00:28;9.30;1.00
7572;DHT22;3827;49.928;8.548;2023-04-03T16:02:58;9.30;1.00
7572;DHT22;3827;49.928;8.548;2023-04-03T16:05:27;9.40;1.00
7572;DHT22;3827;49.928;8.548;2023-04-03T16:07:54;9.40;1.00
7572;DHT22;3827;49.928;8.548;2023-04-03T16:10:22;9.30;1.00
7572;DHT22;3827;49.928;8.548;2023-04-03T16:12:49;9.10;1.00
7572;DHT22;3827;49.928;8.548;2023-04-03T16:15:16;9.20;1.00
7572;DHT22;3827;49.928;8.548;2023-04-03T16:17:43;9.20;1.00
7572;DHT22;3827;49.928;8.548;2023-04-03T16:20:11;8.90;1.00
7572;DHT22;3827;49.928;8.548;2023-04-03T16:22:39;9.00;1.00
7572;DHT22;3827;49.928;8.548;2023-04-03T16:25:07;9.00;1.00
7572;DHT22;3827;49.928;8.548;2023-04-03T16:27:36;8.90;1.00
7572;DHT22;3827;49.928;8.548;2023-04-03T16:30:05;8.80;1.00
7572;DHT22;3827;49.928;8.548;2023-04-03T16:32:32;8.80;1.00
7572;DHT22;3827;49.928;8.548;2023-04-03T16:34:59;8.90;1.00
7572;DHT22;3827;49.928;8.548;2023-04-03T16:37:26;8.80;1.00
7572;DHT22;3827;49.928;8.548;2023-04-03T16:39:53;8.60;1.00
7572;DHT22;3827;49.928;8.548;2023-04-03T16:42:20;8.50;1.00
7572;DHT22;3827;49.928;8.548;2023-04-03T16:44:48;8.40;1.00
7572;DHT22;3827;49.928;8.548;2023-04-03T16:47:24;8.10;1.00
7572;DHT22;3827;49.928;8.548;2023-04-03T16:49:50;8.10;1.00
7572;DHT22;3827;49.928;8.548;2023-04-03T16:52:17;8.10;1.00
7572;DHT22;3827;49.928;8.548;2023-04-03T16:54:44;8.40;1.00
7572;DHT22;3827;49.928;8.548;2023-04-03T16:57:11;7.90;1.00